createdAt,value
2023-01-11T00:01:07.313Z,4.09
2023-01-11T00:03:35.523Z,4.11
2023-01-11T00:06:04.955Z,4.12
2023-01-11T00:08:33.094Z,4.05
2023-01-11T00:11:02.557Z,4.16
2023-01-11T00:13:31.422Z,4.16
2023-01-11T00:16:06.424Z,4.16
2023-01-11T00:18:34.991Z,4.18
2023-01-11T00:21:06.985Z,4.19
2023-01-11T00:23:36.847Z,4.20
2023-01-11T00:26:06.233Z,4.20
2023-01-11T00:28:34.492Z,4.21
2023-01-11T00:31:03.145Z,4.21
2023-01-11T00:33:31.564Z,4.22
2023-01-11T00:35:59.707Z,4.22
2023-01-11T00:38:46.582Z,4.24
2023-01-11T00:41:34.992Z,4.24
2023-01-11T00:44:23.227Z,4.27
2023-01-11T00:47:10.382Z,4.27
2023-01-11T00:49:38.844Z,4.28
2023-01-11T00:52:09.330Z,4.30
2023-01-11T00:54:39.755Z,4.31
2023-01-11T00:57:08.479Z,4.32
2023-01-11T00:59:39.500Z,4.32
2023-01-11T01:02:08.688Z,4.35
2023-01-11T01:04:37.197Z,4.37
2023-01-11T01:07:06.327Z,4.39
2023-01-11T01:09:34.556Z,4.39
2023-01-11T01:12:02.607Z,4.41
2023-01-11T01:14:31.565Z,4.42
2023-01-11T01:17:07.410Z,4.44
2023-01-11T01:19:38.474Z,4.45
2023-01-11T01:22:06.511Z,4.46
2023-01-11T01:24:34.921Z,4.47
2023-01-11T01:27:03.713Z,4.48
2023-01-11T01:29:31.644Z,4.49
2023-01-11T01:31:59.868Z,4.50
2023-01-11T01:34:27.887Z,4.51
2023-01-11T01:36:56.191Z,4.52
2023-01-11T01:39:24.417Z,4.53
2023-01-11T01:41:52.456Z,4.55
2023-01-11T01:44:58.158Z,4.56
2023-01-11T01:48:01.300Z,4.58
2023-01-11T01:50:40.718Z,4.59
2023-01-11T01:53:16.843Z,4.60
2023-01-11T01:55:51.214Z,4.62
2023-01-11T01:58:23.473Z,4.62
2023-01-11T02:00:51.755Z,4.64
2023-01-11T02:03:25.538Z,4.65
2023-01-11T02:05:54.168Z,4.66
2023-01-11T02:08:29.860Z,4.68
2023-01-11T02:10:59.340Z,4.69
2023-01-11T02:13:27.686Z,4.70
2023-01-11T02:16:09.020Z,4.71
2023-01-11T02:18:38.427Z,4.71
2023-01-11T02:21:50.056Z,4.72
2023-01-11T02:24:36.994Z,4.73
2023-01-11T02:27:43.461Z,4.66
2023-01-11T02:30:19.406Z,4.74
2023-01-11T02:33:06.521Z,4.67
2023-01-11T02:36:13.708Z,4.77
2023-01-11T02:39:02.997Z,4.78
2023-01-11T02:42:13.442Z,4.79
2023-01-11T02:45:01.718Z,4.79
2023-01-11T02:47:29.797Z,4.79
2023-01-11T02:50:10.036Z,4.79
2023-01-11T02:52:57.532Z,4.80
2023-01-11T02:55:35.241Z,4.81
2023-01-11T02:58:06.869Z,4.82
2023-01-11T03:00:38.966Z,4.83
2023-01-11T03:03:10.059Z,4.84
2023-01-11T03:05:44.080Z,4.83
2023-01-11T05:10:53.188Z,4.90
2023-01-11T05:13:20.484Z,4.88
2023-01-11T05:15:47.236Z,4.87
2023-01-11T05:18:14.202Z,4.86
2023-01-11T05:20:40.926Z,4.87
2023-01-11T05:23:07.463Z,4.87
2023-01-11T05:25:34.323Z,4.86
2023-01-11T05:28:01.035Z,4.77
2023-01-11T05:30:27.575Z,4.84
2023-01-11T05:32:54.623Z,4.82
2023-01-11T05:35:21.277Z,4.82
2023-01-11T05:37:47.806Z,4.80
2023-01-11T05:40:14.656Z,4.78
2023-01-11T05:42:41.382Z,4.77
2023-01-11T05:45:28.321Z,4.74
2023-01-11T05:47:55.063Z,4.72
2023-01-11T05:50:21.767Z,4.71
2023-01-11T05:52:48.490Z,4.69
2023-01-11T05:55:15.699Z,4.68
2023-01-11T05:57:43.810Z,4.66
2023-01-11T06:00:11.724Z,4.64
2023-01-11T06:02:38.642Z,4.63
2023-01-11T06:05:06.288Z,4.61
2023-01-11T06:07:33.135Z,4.61
2023-01-11T06:09:59.805Z,4.60
2023-01-11T06:12:26.445Z,4.59
2023-01-11T06:14:53.346Z,4.58
2023-01-11T06:17:20.158Z,4.57
2023-01-11T06:19:46.696Z,4.58
2023-01-11T06:22:13.491Z,4.49
2023-01-11T06:24:40.569Z,4.56
2023-01-11T06:27:07.082Z,4.55
2023-01-11T06:29:33.772Z,4.55
2023-01-11T06:32:00.492Z,4.45
2023-01-11T06:34:27.064Z,4.53
2023-01-11T06:36:53.860Z,4.53
2023-01-11T06:39:20.549Z,4.53
2023-01-11T06:41:47.197Z,4.45
2023-01-11T06:44:14.150Z,4.53
2023-01-11T06:46:40.973Z,4.52
2023-01-11T06:49:07.650Z,4.52
2023-01-11T06:51:34.426Z,4.52
2023-01-11T06:54:01.228Z,4.51
2023-01-11T06:56:27.703Z,4.34
2023-01-11T06:58:54.574Z,4.49
2023-01-11T07:01:21.370Z,4.49
2023-01-11T07:03:48.066Z,4.49
2023-01-11T07:06:14.842Z,4.49
2023-01-11T07:08:42.117Z,4.49
2023-01-11T07:11:08.898Z,4.50
2023-01-11T07:13:36.298Z,4.50
2023-01-11T07:16:03.237Z,4.51
2023-01-11T07:18:31.477Z,4.52
2023-01-11T07:20:58.752Z,4.51
2023-01-11T07:23:25.774Z,4.51
2023-01-11T07:25:52.472Z,4.51
2023-01-11T07:28:19.303Z,4.51
2023-01-11T07:30:57.545Z,4.51
2023-01-11T07:33:27.231Z,4.52
2023-01-11T07:35:54.449Z,4.51
2023-01-11T07:38:21.436Z,4.52
2023-01-11T07:40:48.160Z,4.52
2023-01-11T07:43:15.464Z,4.52
2023-01-11T07:45:47.380Z,4.51
2023-01-11T07:48:20.140Z,4.52
2023-01-11T07:50:48.163Z,4.53
2023-01-11T07:53:15.002Z,4.52
2023-01-11T07:55:42.256Z,4.51
2023-01-11T07:58:14.248Z,4.51
2023-01-11T08:00:41.034Z,4.51
2023-01-11T08:03:08.967Z,4.52
2023-01-11T08:05:36.119Z,4.54
2023-01-11T08:08:03.936Z,4.55
2023-01-11T08:10:30.888Z,4.55
2023-01-11T08:13:17.033Z,4.57
2023-01-11T08:15:43.940Z,4.60
2023-01-11T08:18:14.369Z,4.65
2023-01-11T08:20:41.111Z,4.71
2023-01-11T08:23:09.555Z,4.77
2023-01-11T08:25:38.010Z,4.82
2023-01-11T08:28:06.875Z,4.86
2023-01-11T08:30:34.779Z,4.90
2023-01-11T08:33:02.463Z,4.94
2023-01-11T08:35:30.204Z,5.01
2023-01-11T08:37:56.968Z,5.07
2023-01-11T08:40:24.976Z,5.14
2023-01-11T08:42:56.408Z,5.21
2023-01-11T08:45:24.334Z,5.27
2023-01-11T08:47:51.385Z,5.32
2023-01-11T08:50:18.091Z,5.39
2023-01-11T08:52:45.525Z,5.46
2023-01-11T08:55:12.251Z,5.51
2023-01-11T08:57:39.433Z,5.55
2023-01-11T09:00:08.252Z,5.60
2023-01-11T09:02:35.094Z,5.63
2023-01-11T09:05:01.890Z,5.63
2023-01-11T09:07:28.650Z,5.61
2023-01-11T09:09:55.630Z,5.59
2023-01-11T09:12:22.195Z,5.56
2023-01-11T09:14:48.917Z,5.52
2023-01-11T09:17:15.770Z,5.51
2023-01-11T09:19:42.321Z,5.49
2023-01-11T09:22:08.935Z,5.49
2023-01-11T09:24:35.950Z,5.47
2023-01-11T09:27:04.239Z,5.47
2023-01-11T09:29:31.300Z,5.47
2023-01-11T09:31:58.293Z,5.42
2023-01-11T09:34:26.683Z,5.38
2023-01-11T09:36:56.189Z,5.34
2023-01-11T09:39:25.889Z,5.30
2023-01-11T09:42:17.391Z,5.23
2023-01-11T09:45:06.426Z,5.18
2023-01-11T09:47:48.684Z,5.13
2023-01-11T09:50:44.905Z,5.07
2023-01-11T09:53:23.924Z,5.03
2023-01-11T09:55:52.366Z,4.99
2023-01-11T09:58:28.716Z,4.97
2023-01-11T10:01:14.628Z,4.94
2023-01-11T10:04:23.525Z,4.92
2023-01-11T10:07:15.880Z,4.86
2023-01-11T10:18:29.205Z,4.75
2023-01-11T10:22:01.642Z,4.69
2023-01-11T10:24:43.435Z,4.71
2023-01-11T10:27:35.201Z,4.75
2023-01-11T10:30:32.643Z,4.75
2023-01-11T10:33:28.762Z,4.77
2023-01-11T10:36:34.029Z,4.77
2023-01-11T10:39:32.555Z,4.77
2023-01-11T10:42:23.160Z,4.75
2023-01-11T10:45:12.220Z,4.70
2023-01-11T10:47:50.663Z,4.61
2023-01-11T10:50:21.070Z,4.67
2023-01-11T10:53:12.256Z,4.65
2023-01-11T10:56:21.107Z,4.66
2023-01-11T10:59:15.370Z,4.69
2023-01-11T11:01:51.206Z,4.70
2023-01-11T11:04:50.360Z,4.72
2023-01-11T11:07:34.816Z,4.70
2023-01-11T11:10:18.291Z,4.74
2023-01-11T11:13:34.700Z,4.73
2023-01-11T11:16:12.351Z,4.73
2023-01-11T11:18:39.271Z,4.72
2023-01-11T11:21:23.022Z,4.72
2023-01-11T11:23:58.698Z,4.73
2023-01-11T11:26:37.891Z,4.71
2023-01-11T11:29:16.416Z,4.72
2023-01-11T11:31:46.497Z,4.72
2023-01-11T11:34:17.261Z,4.69
2023-01-11T11:36:46.587Z,4.69
2023-01-11T11:39:30.668Z,4.69
2023-01-11T11:42:14.811Z,4.70
2023-01-11T11:44:41.779Z,4.73
2023-01-11T11:47:14.286Z,4.75
2023-01-11T11:49:42.014Z,4.77
2023-01-11T11:52:17.922Z,4.80
2023-01-11T11:54:52.230Z,4.82
2023-01-11T11:57:24.080Z,4.82
2023-01-11T12:00:06.637Z,4.75
2023-01-11T12:02:36.186Z,4.84
2023-01-11T12:05:09.835Z,4.84
2023-01-11T12:07:53.844Z,4.84
2023-01-11T12:10:27.599Z,4.84
2023-01-11T12:13:02.258Z,4.85
2023-01-11T12:15:33.820Z,4.86
2023-01-11T12:18:25.019Z,4.85
2023-01-11T12:20:52.118Z,4.85
2023-01-11T12:23:23.581Z,4.85
2023-01-11T12:25:56.193Z,4.83
2023-01-11T12:28:43.587Z,4.84
2023-01-11T12:31:25.157Z,4.82
2023-01-11T12:34:17.851Z,4.78
2023-01-11T12:36:44.636Z,4.76
2023-01-11T12:39:45.290Z,4.76
2023-01-11T12:42:31.232Z,4.73
2023-01-11T12:45:07.360Z,4.72
2023-01-11T12:48:11.969Z,4.70
2023-01-11T12:51:14.650Z,4.66
2023-01-11T12:53:51.320Z,4.64
2023-01-11T12:56:28.638Z,4.63
2023-01-11T12:59:02.511Z,4.61
2023-01-11T13:01:57.290Z,4.51
2023-01-11T13:04:27.224Z,4.57
2023-01-11T13:07:17.989Z,4.56
2023-01-11T13:10:01.862Z,4.54
2023-01-11T13:12:38.290Z,4.51
2023-01-11T13:15:15.171Z,4.41
2023-01-11T13:18:10.848Z,4.48
2023-01-11T13:20:59.965Z,4.48
2023-01-11T13:23:41.285Z,4.48
2023-01-11T13:26:39.741Z,4.47
2023-01-11T13:29:11.160Z,4.47
2023-01-11T13:31:40.356Z,4.46
2023-01-11T13:34:15.967Z,4.45
2023-01-11T13:36:48.255Z,4.44
2023-01-11T13:39:17.995Z,4.43
2023-01-11T13:41:50.212Z,4.41
2023-01-11T13:44:41.985Z,4.39
2023-01-11T13:47:15.348Z,4.36
2023-01-11T13:49:56.906Z,4.34
2023-01-11T13:53:09.227Z,4.32
2023-01-11T13:55:35.885Z,4.30
2023-01-11T13:58:45.233Z,4.28
2023-01-11T14:01:20.004Z,4.27
2023-01-11T14:03:55.503Z,4.19
2023-01-11T14:06:40.315Z,4.26
2023-01-11T14:09:31.441Z,4.24
2023-01-11T14:12:20.268Z,4.21
2023-01-11T14:15:15.393Z,4.19
2023-01-11T14:18:21.666Z,4.19
2023-01-11T14:21:06.624Z,4.18
2023-01-11T14:23:49.529Z,4.15
2023-01-11T14:26:41.864Z,4.13
2023-01-11T14:29:27.392Z,4.09
2023-01-11T14:32:09.237Z,4.07
2023-01-11T14:34:58.877Z,4.05
2023-01-11T14:37:55.555Z,4.03
2023-01-11T14:40:58.287Z,4.02
2023-01-11T14:43:36.578Z,3.99
2023-01-11T14:46:25.470Z,3.97
2023-01-11T14:49:27.362Z,3.97
2023-01-11T14:52:09.056Z,3.97
2023-01-11T14:54:45.145Z,3.96
2023-01-11T14:57:42.660Z,3.94
2023-01-11T15:00:18.682Z,3.92
2023-01-11T15:02:50.036Z,3.78
2023-01-11T15:05:29.102Z,3.87
2023-01-11T15:08:14.506Z,3.86
2023-01-11T15:11:00.492Z,3.84
2023-01-11T15:13:32.567Z,3.81
2023-01-11T15:16:33.577Z,3.78
2023-01-11T15:19:07.387Z,3.75
2023-01-11T15:21:41.191Z,3.74
2023-01-11T15:24:27.970Z,3.71
2023-01-11T15:27:01.026Z,3.68
2023-01-11T15:29:33.694Z,3.66
2023-01-11T15:32:00.446Z,3.63
2023-01-11T15:34:30.257Z,3.60
2023-01-11T15:36:59.776Z,3.58
2023-01-11T15:39:45.202Z,3.54
2023-01-11T15:42:14.957Z,3.53
2023-01-11T15:45:03.107Z,3.52
2023-01-11T15:47:39.162Z,3.48
2023-01-11T15:50:28.314Z,3.47
2023-01-11T15:53:40.839Z,3.45
2023-01-11T15:56:10.589Z,3.42
2023-01-11T15:58:58.488Z,3.40
2023-01-11T16:01:29.758Z,3.40
2023-01-11T16:04:24.382Z,3.37
2023-01-11T16:06:58.497Z,3.36
2023-01-11T16:09:46.526Z,3.35
2023-01-11T16:12:42.653Z,3.34
2023-01-11T16:15:41.642Z,3.35
2023-01-11T16:18:22.362Z,3.37
2023-01-11T16:21:01.847Z,3.37
2023-01-11T16:23:33.636Z,3.38
2023-01-11T16:26:01.829Z,3.40
2023-01-11T16:28:28.953Z,3.41
2023-01-11T16:31:05.240Z,3.42
2023-01-11T16:33:34.156Z,3.43
2023-01-11T16:36:23.314Z,3.44
2023-01-11T16:39:05.739Z,3.45
2023-01-11T16:42:11.401Z,3.46
2023-01-11T16:44:57.790Z,3.45
2023-01-11T16:47:24.787Z,3.47
2023-01-11T16:50:10.829Z,3.48
2023-01-11T16:52:53.173Z,3.49
2023-01-11T16:55:37.260Z,3.51
2023-01-11T16:58:16.471Z,3.53
2023-01-11T17:00:56.328Z,3.48
2023-01-11T17:03:25.088Z,3.54
2023-01-11T17:06:13.221Z,3.53
2023-01-11T17:08:42.596Z,3.55
2023-01-11T17:11:28.323Z,3.56
2023-01-11T17:14:20.884Z,3.57
2023-01-11T17:16:50.619Z,3.57
2023-01-11T17:19:39.096Z,3.58
2023-01-11T17:22:15.326Z,3.58
2023-01-11T17:24:55.299Z,3.60
2023-01-11T17:27:45.739Z,3.53
2023-01-11T17:30:24.335Z,3.61
2023-01-11T17:32:53.304Z,3.54
2023-01-11T17:35:23.103Z,3.62
2023-01-11T17:37:59.360Z,3.62
2023-01-11T17:40:30.213Z,3.62
2023-01-11T17:43:22.761Z,3.61
2023-01-11T17:45:57.686Z,3.59
2023-01-11T17:48:31.412Z,3.58
2023-01-11T17:51:00.517Z,3.56
2023-01-11T17:53:31.812Z,3.56
2023-01-11T17:56:26.316Z,3.54
2023-01-11T17:59:10.987Z,3.53
2023-01-11T18:01:38.760Z,3.52
2023-01-11T18:04:05.838Z,3.50
2023-01-11T18:06:41.672Z,3.50
2023-01-11T18:09:21.701Z,3.40
2023-01-11T18:12:03.612Z,3.49
2023-01-11T18:14:38.748Z,3.49
2023-01-11T18:17:27.015Z,3.48
2023-01-11T18:19:54.246Z,3.48
2023-01-11T18:22:45.715Z,3.48
2023-01-11T18:25:24.046Z,3.47
2023-01-11T18:27:51.677Z,3.46
2023-01-11T18:30:31.134Z,3.45
2023-01-11T18:33:01.662Z,3.45
2023-01-11T18:35:29.908Z,3.44
2023-01-11T18:37:56.620Z,3.43
2023-01-11T18:40:23.292Z,3.42
2023-01-11T18:42:52.129Z,3.41
2023-01-11T18:45:19.730Z,3.40
2023-01-11T18:47:46.633Z,3.39
2023-01-11T18:50:13.774Z,3.39
2023-01-11T18:52:40.733Z,3.39
2023-01-11T18:55:10.906Z,3.39
2023-01-11T18:57:37.949Z,3.40
2023-01-11T19:00:05.081Z,3.40
2023-01-11T19:02:42.199Z,3.40
2023-01-11T19:05:12.769Z,3.38
2023-01-11T19:07:39.656Z,3.37
2023-01-11T19:10:06.763Z,3.34
2023-01-11T19:12:33.614Z,3.34
2023-01-11T19:15:00.285Z,3.34
2023-01-11T19:17:28.122Z,3.33
2023-01-11T19:19:55.016Z,3.24
2023-01-11T19:22:24.538Z,3.33
2023-01-11T19:24:54.310Z,3.32
2023-01-11T19:27:22.074Z,3.30
2023-01-11T19:29:48.805Z,3.29
2023-01-11T19:32:16.815Z,3.27
2023-01-11T19:34:43.827Z,3.24
2023-01-11T19:37:10.916Z,3.24
2023-01-11T19:39:39.838Z,3.22
2023-01-11T19:42:07.976Z,3.20
2023-01-11T19:44:39.697Z,3.20
2023-01-11T19:47:12.039Z,3.19
2023-01-11T19:49:41.298Z,3.02
2023-01-11T19:52:16.878Z,3.18
2023-01-11T19:54:46.780Z,3.17
2023-01-11T19:57:18.556Z,3.18
2023-01-11T19:59:49.673Z,3.18
2023-01-11T20:02:18.765Z,3.19
2023-01-11T20:04:45.971Z,3.12
2023-01-11T20:07:14.723Z,3.20
2023-01-11T20:09:42.302Z,3.20
2023-01-11T20:12:16.964Z,3.21
2023-01-11T20:14:45.009Z,3.23
2023-01-11T20:17:12.745Z,3.24
2023-01-11T20:19:39.806Z,3.25
2023-01-11T20:22:06.462Z,3.28
2023-01-11T20:24:37.753Z,3.29
2023-01-11T20:27:10.200Z,3.30
2023-01-11T20:29:48.010Z,3.31
2023-01-11T20:32:39.567Z,3.32
2023-01-11T20:35:07.504Z,3.33
2023-01-11T20:37:34.486Z,3.35
2023-01-11T20:40:01.062Z,3.36
2023-01-11T20:42:27.679Z,3.37
2023-01-11T20:44:54.693Z,3.39
2023-01-11T20:47:21.295Z,3.41
2023-01-11T20:49:47.927Z,3.43
2023-01-11T20:52:14.875Z,3.44
2023-01-11T20:54:41.534Z,3.46
2023-01-11T20:57:11.938Z,3.48
2023-01-11T20:59:38.927Z,3.50
2023-01-11T21:02:06.895Z,3.53
2023-01-11T21:04:33.637Z,3.53
2023-01-11T21:07:00.596Z,3.55
2023-01-11T21:09:27.493Z,3.57
2023-01-11T21:11:54.338Z,3.58
2023-01-11T21:14:22.057Z,3.60
2023-01-11T21:16:48.961Z,3.63
2023-01-11T21:19:15.881Z,3.65
2023-01-11T21:21:43.929Z,3.68
2023-01-11T21:24:15.065Z,3.70
2023-01-11T21:26:44.606Z,3.72
2023-01-11T21:29:12.433Z,3.75
2023-01-11T21:31:40.002Z,3.77
2023-01-11T21:34:07.126Z,3.80
2023-01-11T21:36:34.110Z,3.82
2023-01-11T21:39:02.053Z,3.85
2023-01-11T21:41:49.506Z,3.87
2023-01-11T21:44:17.426Z,3.81
2023-01-11T21:46:44.866Z,3.90
2023-01-11T21:49:12.738Z,3.91
2023-01-11T21:51:40.537Z,3.93
2023-01-11T21:54:10.624Z,3.94
2023-01-11T21:56:38.067Z,3.96
2023-01-11T21:59:05.258Z,3.97
2023-01-11T22:01:31.913Z,3.98
2023-01-11T22:03:59.129Z,4.00
2023-01-11T22:06:25.966Z,3.98
2023-01-11T22:08:52.681Z,4.02
2023-01-11T22:11:19.880Z,4.03
2023-01-11T22:13:46.623Z,4.03
2023-01-11T22:16:16.536Z,4.04
2023-01-11T22:18:45.046Z,4.05
2023-01-11T22:21:17.540Z,4.06
2023-01-11T22:23:46.479Z,4.06
2023-01-11T22:26:18.152Z,4.07
2023-01-11T22:29:05.148Z,4.08
2023-01-11T22:31:33.562Z,4.09
2023-01-11T22:34:00.810Z,4.06
2023-01-11T22:36:28.523Z,4.12
2023-01-11T22:38:56.063Z,4.13
2023-01-11T22:41:24.674Z,4.07
2023-01-11T22:43:51.754Z,4.16
2023-01-11T22:46:20.953Z,4.17
2023-01-11T22:48:48.231Z,4.17
2023-01-11T22:51:17.360Z,4.18
2023-01-11T22:53:46.128Z,4.18
2023-01-11T22:56:15.265Z,4.20
2023-01-11T22:58:42.119Z,4.20
2023-01-11T23:01:17.956Z,4.20
2023-01-11T23:03:45.377Z,4.21
2023-01-11T23:06:16.444Z,4.22
2023-01-11T23:08:43.309Z,4.23
2023-01-11T23:11:35.446Z,4.25
2023-01-11T23:14:05.053Z,4.26
2023-01-11T23:16:32.157Z,4.28
2023-01-11T23:18:59.378Z,4.30
2023-01-11T23:21:26.273Z,4.31
2023-01-11T23:23:53.140Z,4.32
2023-01-11T23:26:20.639Z,4.32
2023-01-11T23:28:48.730Z,4.33
2023-01-11T23:31:18.695Z,4.32
2023-01-11T23:33:50.676Z,4.32
2023-01-11T23:36:19.960Z,4.32
2023-01-11T23:38:47.465Z,4.32
2023-01-11T23:41:35.243Z,4.32
2023-01-11T23:44:04.665Z,4.32
2023-01-11T23:46:50.469Z,4.32
2023-01-11T23:49:17.371Z,4.33
2023-01-11T23:51:44.298Z,4.33
2023-01-11T23:54:11.321Z,4.33
2023-01-11T23:56:38.536Z,4.32
2023-01-11T23:59:06.886Z,4.31
